sensor_id;sensor_type;location;lat;lon;timestamp;pressure;altitude;pressure_sealevel;temperature;humidity
4745;BME280;2386;42.138;24.746;2023-02-08T00:00:22;101405.94;;;1.06;54.93
4745;BME280;2386;42.138;24.746;2023-02-08T00:02:48;101407.78;;;1.05;54.97
4745;BME280;2386;42.138;24.746;2023-02-08T00:05:14;101405.41;;;0.80;55.59
4745;BME280;2386;42.138;24.746;2023-02-08T00:07:39;101406.59;;;0.87;55.59
4745;BME280;2386;42.138;24.746;2023-02-08T00:10:05;101410.97;;;0.88;55.57
4745;BME280;2386;42.138;24.746;2023-02-08T00:12:32;101412.75;;;1.10;54.99
4745;BME280;2386;42.138;24.746;2023-02-08T00:14:58;101420.19;;;0.95;55.72
4745;BME280;2386;42.138;24.746;2023-02-08T00:17:23;101422.03;;;0.83;55.42
4745;BME280;2386;42.138;24.746;2023-02-08T00:19:49;101422.63;;;0.87;55.49
4745;BME280;2386;42.138;24.746;2023-02-08T00:22:14;101427.72;;;0.90;55.25
4745;BME280;2386;42.138;24.746;2023-02-08T00:24:39;101423.16;;;0.58;56.21
4745;BME280;2386;42.138;24.746;2023-02-08T00:27:05;101438.44;;;0.45;57.13
4745;BME280;2386;42.138;24.746;2023-02-08T00:29:30;101435.91;;;0.44;57.18
4745;BME280;2386;42.138;24.746;2023-02-08T00:31:56;101439.06;;;0.49;56.78
4745;BME280;2386;42.138;24.746;2023-02-08T00:34:21;101438.22;;;0.48;57.58
4745;BME280;2386;42.138;24.746;2023-02-08T00:36:46;101434.81;;;0.46;57.48
4745;BME280;2386;42.138;24.746;2023-02-08T00:39:12;101445.00;;;0.52;57.20
4745;BME280;2386;42.138;24.746;2023-02-08T00:41:37;101447.06;;;0.60;56.48
4745;BME280;2386;42.138;24.746;2023-02-08T00:44:02;101438.81;;;0.63;56.65
4745;BME280;2386;42.138;24.746;2023-02-08T00:46:28;101449.63;;;0.73;56.48
4745;BME280;2386;42.138;24.746;2023-02-08T00:48:53;101451.44;;;0.72;56.54
4745;BME280;2386;42.138;24.746;2023-02-08T00:51:19;101448.97;;;0.80;56.19
4745;BME280;2386;42.138;24.746;2023-02-08T00:53:45;101455.94;;;0.72;57.09
4745;BME280;2386;42.138;24.746;2023-02-08T00:56:11;101455.31;;;0.68;56.68
4745;BME280;2386;42.138;24.746;2023-02-08T00:58:37;101453.75;;;0.54;57.25
4745;BME280;2386;42.138;24.746;2023-02-08T01:01:05;101462.09;;;0.50;57.18
4745;BME280;2386;42.138;24.746;2023-02-08T01:03:33;101454.34;;;0.58;57.36
4745;BME280;2386;42.138;24.746;2023-02-08T01:06:04;101446.47;;;0.68;57.33
4745;BME280;2386;42.138;24.746;2023-02-08T01:08:30;101457.09;;;0.79;57.64
4745;BME280;2386;42.138;24.746;2023-02-08T01:11:14;101452.28;;;0.73;57.05
4745;BME280;2386;42.138;24.746;2023-02-08T01:13:40;101445.50;;;0.69;57.15
4745;BME280;2386;42.138;24.746;2023-02-08T01:16:17;101444.72;;;0.78;57.11
4745;BME280;2386;42.138;24.746;2023-02-08T01:18:44;101446.72;;;0.64;56.83
4745;BME280;2386;42.138;24.746;2023-02-08T01:21:14;101447.63;;;0.86;57.23
4745;BME280;2386;42.138;24.746;2023-02-08T01:23:41;101447.38;;;0.89;57.00
4745;BME280;2386;42.138;24.746;2023-02-08T01:26:07;101458.81;;;0.91;55.70
4745;BME280;2386;42.138;24.746;2023-02-08T01:28:33;101453.72;;;0.77;55.95
4745;BME280;2386;42.138;24.746;2023-02-08T01:30:58;101459.06;;;0.54;56.61
4745;BME280;2386;42.138;24.746;2023-02-08T01:33:24;101458.13;;;0.67;56.95
4745;BME280;2386;42.138;24.746;2023-02-08T01:35:52;101455.81;;;0.62;57.90
4745;BME280;2386;42.138;24.746;2023-02-08T01:38:18;101443.19;;;0.53;56.80
4745;BME280;2386;42.138;24.746;2023-02-08T01:40:44;101457.75;;;0.60;57.39
4745;BME280;2386;42.138;24.746;2023-02-08T01:43:34;101465.63;;;0.61;56.64
4745;BME280;2386;42.138;24.746;2023-02-08T01:46:18;101463.69;;;0.52;56.66
4745;BME280;2386;42.138;24.746;2023-02-08T01:48:43;101461.22;;;0.27;57.55
4745;BME280;2386;42.138;24.746;2023-02-08T01:51:16;101463.06;;;0.38;57.79
4745;BME280;2386;42.138;24.746;2023-02-08T01:53:45;101464.06;;;0.48;58.63
4745;BME280;2386;42.138;24.746;2023-02-08T01:56:17;101462.97;;;0.50;56.93
4745;BME280;2386;42.138;24.746;2023-02-08T01:58:52;101464.91;;;0.48;56.86
4745;BME280;2386;42.138;24.746;2023-02-08T02:01:19;101468.31;;;0.61;56.64
4745;BME280;2386;42.138;24.746;2023-02-08T02:03:44;101471.22;;;0.58;56.84
4745;BME280;2386;42.138;24.746;2023-02-08T02:06:14;101470.25;;;0.48;57.09
4745;BME280;2386;42.138;24.746;2023-02-08T02:08:46;101469.63;;;0.56;57.03
4745;BME280;2386;42.138;24.746;2023-02-08T02:11:14;101468.91;;;0.65;57.18
4745;BME280;2386;42.138;24.746;2023-02-08T02:13:40;101468.06;;;0.64;56.17
4745;BME280;2386;42.138;24.746;2023-02-08T02:16:05;101467.81;;;0.56;55.98
4745;BME280;2386;42.138;24.746;2023-02-08T02:18:32;101467.06;;;0.43;56.36
4745;BME280;2386;42.138;24.746;2023-02-08T02:33:07;101481.50;;;0.29;55.83
4745;BME280;2386;42.138;24.746;2023-02-08T02:38:47;101487.31;;;0.23;56.45
4745;BME280;2386;42.138;24.746;2023-02-08T02:42:06;101480.72;;;0.16;56.50
4745;BME280;2386;42.138;24.746;2023-02-08T02:45:16;101484.63;;;0.23;56.38
4745;BME280;2386;42.138;24.746;2023-02-08T02:48:06;101491.41;;;0.16;56.73
4745;BME280;2386;42.138;24.746;2023-02-08T02:50:42;101504.13;;;0.13;57.00
4745;BME280;2386;42.138;24.746;2023-02-08T02:53:18;101505.84;;;0.14;56.45
4745;BME280;2386;42.138;24.746;2023-02-08T02:55:53;101506.06;;;0.11;57.04
4745;BME280;2386;42.138;24.746;2023-02-08T02:58:22;101509.47;;;0.13;57.23
4745;BME280;2386;42.138;24.746;2023-02-08T03:00:56;101507.56;;;0.26;57.94
4745;BME280;2386;42.138;24.746;2023-02-08T03:03:24;101520.25;;;0.11;56.93
4745;BME280;2386;42.138;24.746;2023-02-08T03:05:51;101513.22;;;0.10;57.13
4745;BME280;2386;42.138;24.746;2023-02-08T03:08:46;101515.22;;;0.30;56.61
4745;BME280;2386;42.138;24.746;2023-02-08T03:11:30;101516.78;;;0.22;56.89
4745;BME280;2386;42.138;24.746;2023-02-08T03:17:37;101526.97;;;0.28;56.39
4745;BME280;2386;42.138;24.746;2023-02-08T03:20:20;101531.31;;;0.18;56.63
4745;BME280;2386;42.138;24.746;2023-02-08T03:25:38;101524.72;;;0.11;56.77
4745;BME280;2386;42.138;24.746;2023-02-08T03:28:21;101529.84;;;0.14;56.08
4745;BME280;2386;42.138;24.746;2023-02-08T03:33:30;101535.28;;;0.12;56.31
4745;BME280;2386;42.138;24.746;2023-02-08T03:36:05;101537.03;;;0.24;56.88
4745;BME280;2386;42.138;24.746;2023-02-08T03:38:38;101545.66;;;0.28;56.64
4745;BME280;2386;42.138;24.746;2023-02-08T03:41:07;101548.91;;;0.20;55.92
4745;BME280;2386;42.138;24.746;2023-02-08T03:43:51;101545.06;;;0.00;57.02
4745;BME280;2386;42.138;24.746;2023-02-08T03:46:28;101543.75;;;0.06;57.11
4745;BME280;2386;42.138;24.746;2023-02-08T03:49:03;101546.06;;;0.11;56.58
4745;BME280;2386;42.138;24.746;2023-02-08T03:51:30;101548.31;;;0.28;57.12
4745;BME280;2386;42.138;24.746;2023-02-08T03:53:57;101554.66;;;0.38;57.98
4745;BME280;2386;42.138;24.746;2023-02-08T03:56:40;101547.69;;;0.24;56.24
4745;BME280;2386;42.138;24.746;2023-02-08T03:59:11;101554.63;;;0.27;55.52
4745;BME280;2386;42.138;24.746;2023-02-08T04:01:44;101554.13;;;0.22;55.76
4745;BME280;2386;42.138;24.746;2023-02-08T04:04:11;101564.72;;;0.35;56.04
4745;BME280;2386;42.138;24.746;2023-02-08T04:06:38;101561.78;;;0.26;55.46
4745;BME280;2386;42.138;24.746;2023-02-08T04:09:03;101570.06;;;0.35;55.00
4745;BME280;2386;42.138;24.746;2023-02-08T04:11:29;101570.53;;;0.28;54.90
4745;BME280;2386;42.138;24.746;2023-02-08T04:13:54;101571.59;;;0.26;55.48
4745;BME280;2386;42.138;24.746;2023-02-08T04:16:20;101565.25;;;0.16;55.56
4745;BME280;2386;42.138;24.746;2023-02-08T04:18:45;101574.50;;;0.23;56.04
4745;BME280;2386;42.138;24.746;2023-02-08T04:21:10;101572.75;;;0.11;55.79
4745;BME280;2386;42.138;24.746;2023-02-08T04:23:36;101570.94;;;0.11;55.80
4745;BME280;2386;42.138;24.746;2023-02-08T04:26:01;101572.63;;;0.12;55.83
4745;BME280;2386;42.138;24.746;2023-02-08T04:28:28;101569.84;;;0.14;57.21
4745;BME280;2386;42.138;24.746;2023-02-08T04:30:54;101575.47;;;0.22;57.23
4745;BME280;2386;42.138;24.746;2023-02-08T04:33:21;101577.44;;;0.31;55.78
4745;BME280;2386;42.138;24.746;2023-02-08T04:35:46;101582.81;;;0.42;55.25
4745;BME280;2386;42.138;24.746;2023-02-08T04:38:12;101583.91;;;0.40;55.87
4745;BME280;2386;42.138;24.746;2023-02-08T04:40:37;101584.41;;;0.45;55.79
4745;BME280;2386;42.138;24.746;2023-02-08T04:43:02;101594.25;;;0.55;56.45
4745;BME280;2386;42.138;24.746;2023-02-08T04:45:28;101589.41;;;0.60;55.51
4745;BME280;2386;42.138;24.746;2023-02-08T04:47:56;101585.41;;;0.55;54.83
4745;BME280;2386;42.138;24.746;2023-02-08T04:50:21;101590.84;;;0.53;54.22
4745;BME280;2386;42.138;24.746;2023-02-08T04:52:47;101592.44;;;0.21;54.61
4745;BME280;2386;42.138;24.746;2023-02-08T04:55:12;101605.72;;;0.10;55.21
4745;BME280;2386;42.138;24.746;2023-02-08T04:57:38;101612.31;;;0.17;55.27
4745;BME280;2386;42.138;24.746;2023-02-08T05:00:03;101620.88;;;-0.02;55.50
4745;BME280;2386;42.138;24.746;2023-02-08T05:02:29;101615.66;;;0.08;56.39
4745;BME280;2386;42.138;24.746;2023-02-08T05:04:54;101619.19;;;0.08;56.33
4745;BME280;2386;42.138;24.746;2023-02-08T05:07:20;101617.59;;;0.06;56.72
4745;BME280;2386;42.138;24.746;2023-02-08T05:09:45;101621.50;;;0.13;56.26
4745;BME280;2386;42.138;24.746;2023-02-08T05:12:10;101632.69;;;0.18;56.33
4745;BME280;2386;42.138;24.746;2023-02-08T05:14:36;101634.56;;;0.05;55.94
4745;BME280;2386;42.138;24.746;2023-02-08T05:17:01;101628.97;;;-0.04;56.09
4745;BME280;2386;42.138;24.746;2023-02-08T05:19:27;101637.84;;;0.08;56.79
4745;BME280;2386;42.138;24.746;2023-02-08T05:21:52;101640.88;;;0.04;56.01
4745;BME280;2386;42.138;24.746;2023-02-08T05:24:17;101635.94;;;0.10;56.10
4745;BME280;2386;42.138;24.746;2023-02-08T05:26:43;101639.09;;;0.15;56.08
4745;BME280;2386;42.138;24.746;2023-02-08T05:29:08;101641.31;;;0.21;55.43
4745;BME280;2386;42.138;24.746;2023-02-08T05:31:34;101639.72;;;0.19;55.30
4745;BME280;2386;42.138;24.746;2023-02-08T05:34:00;101651.09;;;0.10;55.55
4745;BME280;2386;42.138;24.746;2023-02-08T05:36:25;101638.31;;;0.02;56.45
4745;BME280;2386;42.138;24.746;2023-02-08T05:38:51;101642.22;;;0.09;56.81
4745;BME280;2386;42.138;24.746;2023-02-08T05:41:17;101638.25;;;0.15;56.51
4745;BME280;2386;42.138;24.746;2023-02-08T05:43:43;101653.34;;;0.27;56.07
4745;BME280;2386;42.138;24.746;2023-02-08T05:46:10;101652.91;;;0.09;56.80
4745;BME280;2386;42.138;24.746;2023-02-08T05:48:36;101647.34;;;0.12;56.05
4745;BME280;2386;42.138;24.746;2023-02-08T05:51:01;101655.22;;;0.14;56.18
4745;BME280;2386;42.138;24.746;2023-02-08T05:53:28;101657.56;;;0.18;55.82
4745;BME280;2386;42.138;24.746;2023-02-08T05:55:56;101659.38;;;0.18;55.79
4745;BME280;2386;42.138;24.746;2023-02-08T05:58:22;101660.56;;;0.14;55.46
4745;BME280;2386;42.138;24.746;2023-02-08T06:00:48;101661.13;;;0.06;55.67
4745;BME280;2386;42.138;24.746;2023-02-08T06:03:13;101666.13;;;0.11;56.00
4745;BME280;2386;42.138;24.746;2023-02-08T06:05:39;101666.00;;;0.12;55.52
4745;BME280;2386;42.138;24.746;2023-02-08T06:08:05;101676.06;;;0.09;55.56
4745;BME280;2386;42.138;24.746;2023-02-08T06:10:30;101677.25;;;0.05;55.85
4745;BME280;2386;42.138;24.746;2023-02-08T06:12:56;101683.69;;;0.26;56.39
4745;BME280;2386;42.138;24.746;2023-02-08T06:15:21;101693.44;;;0.38;55.81
4745;BME280;2386;42.138;24.746;2023-02-08T06:17:47;101695.81;;;0.30;54.77
4745;BME280;2386;42.138;24.746;2023-02-08T06:20:12;101690.31;;;0.20;54.95
4745;BME280;2386;42.138;24.746;2023-02-08T06:22:38;101688.78;;;0.29;54.50
4745;BME280;2386;42.138;24.746;2023-02-08T06:25:04;101690.03;;;0.36;55.87
4745;BME280;2386;42.138;24.746;2023-02-08T06:27:30;101691.28;;;0.19;54.54
4745;BME280;2386;42.138;24.746;2023-02-08T06:29:55;101686.78;;;0.20;54.85
4745;BME280;2386;42.138;24.746;2023-02-08T06:32:21;101689.47;;;0.20;55.31
4745;BME280;2386;42.138;24.746;2023-02-08T06:34:46;101693.03;;;0.31;55.59
4745;BME280;2386;42.138;24.746;2023-02-08T06:37:15;101682.53;;;0.41;55.19
4745;BME280;2386;42.138;24.746;2023-02-08T06:39:41;101687.59;;;0.57;55.48
4745;BME280;2386;42.138;24.746;2023-02-08T06:42:06;101698.22;;;0.81;55.15
4745;BME280;2386;42.138;24.746;2023-02-08T06:44:31;101700.91;;;0.92;54.48
4745;BME280;2386;42.138;24.746;2023-02-08T06:46:57;101698.13;;;0.93;54.25
4745;BME280;2386;42.138;24.746;2023-02-08T06:49:22;101706.66;;;1.10;54.82
4745;BME280;2386;42.138;24.746;2023-02-08T06:51:47;101707.56;;;1.33;53.47
4745;BME280;2386;42.138;24.746;2023-02-08T06:54:13;101704.88;;;1.21;52.94
4745;BME280;2386;42.138;24.746;2023-02-08T06:56:39;101708.00;;;1.04;53.14
4745;BME280;2386;42.138;24.746;2023-02-08T06:59:06;101706.78;;;1.08;53.27
4745;BME280;2386;42.138;24.746;2023-02-08T07:01:31;101704.47;;;1.04;54.03
4745;BME280;2386;42.138;24.746;2023-02-08T07:03:57;101714.56;;;1.11;53.84
4745;BME280;2386;42.138;24.746;2023-02-08T07:06:22;101714.91;;;1.07;53.05
4745;BME280;2386;42.138;24.746;2023-02-08T07:08:47;101709.44;;;0.97;54.05
4745;BME280;2386;42.138;24.746;2023-02-08T07:11:15;101714.06;;;1.06;53.68
4745;BME280;2386;42.138;24.746;2023-02-08T07:13:41;101715.28;;;1.02;53.25
4745;BME280;2386;42.138;24.746;2023-02-08T07:16:08;101732.31;;;1.12;54.16
4745;BME280;2386;42.138;24.746;2023-02-08T07:18:34;101719.41;;;1.06;53.44
4745;BME280;2386;42.138;24.746;2023-02-08T07:21:00;101728.47;;;1.39;53.46
4745;BME280;2386;42.138;24.746;2023-02-08T07:23:26;101736.47;;;1.27;53.04
4745;BME280;2386;42.138;24.746;2023-02-08T07:26:03;101723.56;;;1.10;53.69
4745;BME280;2386;42.138;24.746;2023-02-08T07:28:29;101741.72;;;1.40;53.96
4745;BME280;2386;42.138;24.746;2023-02-08T07:30:55;101739.78;;;1.42;52.98
4745;BME280;2386;42.138;24.746;2023-02-08T07:33:21;101732.94;;;1.49;53.85
4745;BME280;2386;42.138;24.746;2023-02-08T07:35:47;101738.19;;;1.73;53.47
4745;BME280;2386;42.138;24.746;2023-02-08T07:38:12;101741.13;;;1.70;52.81
4745;BME280;2386;42.138;24.746;2023-02-08T07:40:38;101741.97;;;1.59;53.07
4745;BME280;2386;42.138;24.746;2023-02-08T07:43:03;101754.25;;;1.73;51.71
4745;BME280;2386;42.138;24.746;2023-02-08T07:45:28;101742.34;;;1.44;52.13
4745;BME280;2386;42.138;24.746;2023-02-08T07:47:54;101754.59;;;1.69;52.71
4745;BME280;2386;42.138;24.746;2023-02-08T07:50:19;101751.09;;;1.90;53.05
4745;BME280;2386;42.138;24.746;2023-02-08T07:52:45;101751.44;;;2.08;53.10
4745;BME280;2386;42.138;24.746;2023-02-08T07:55:14;101749.88;;;1.72;51.84
4745;BME280;2386;42.138;24.746;2023-02-08T07:57:45;101753.75;;;2.02;52.85
4745;BME280;2386;42.138;24.746;2023-02-08T08:00:13;101757.03;;;2.16;52.35
4745;BME280;2386;42.138;24.746;2023-02-08T08:02:39;101758.63;;;2.08;51.03
4745;BME280;2386;42.138;24.746;2023-02-08T08:05:05;101758.00;;;2.15;51.79
4745;BME280;2386;42.138;24.746;2023-02-08T08:07:30;101745.50;;;1.82;51.14
4745;BME280;2386;42.138;24.746;2023-02-08T08:09:55;101761.66;;;1.92;51.78
4745;BME280;2386;42.138;24.746;2023-02-08T08:12:21;101757.16;;;2.04;51.66
4745;BME280;2386;42.138;24.746;2023-02-08T08:14:49;101756.88;;;2.29;51.57
4745;BME280;2386;42.138;24.746;2023-02-08T08:17:15;101762.50;;;2.15;51.76
4745;BME280;2386;42.138;24.746;2023-02-08T08:19:40;101764.03;;;2.40;50.87
4745;BME280;2386;42.138;24.746;2023-02-08T08:22:05;101763.91;;;2.30;51.54
4745;BME280;2386;42.138;24.746;2023-02-08T08:24:31;101764.47;;;2.56;51.69
4745;BME280;2386;42.138;24.746;2023-02-08T08:27:03;101747.78;;;2.63;51.83
4745;BME280;2386;42.138;24.746;2023-02-08T08:29:34;101762.53;;;2.58;49.64
4745;BME280;2386;42.138;24.746;2023-02-08T08:32:00;101752.41;;;2.61;50.51
4745;BME280;2386;42.138;24.746;2023-02-08T08:34:25;101766.50;;;2.75;50.75
4745;BME280;2386;42.138;24.746;2023-02-08T08:37:03;101759.84;;;2.90;50.09
4745;BME280;2386;42.138;24.746;2023-02-08T08:39:28;101766.84;;;3.02;49.95
4745;BME280;2386;42.138;24.746;2023-02-08T08:41:58;101756.38;;;2.99;49.90
4745;BME280;2386;42.138;24.746;2023-02-08T08:44:24;101756.94;;;5.22;84.51
4745;BME280;2386;42.138;24.746;2023-02-08T08:46:53;101762.19;;;3.97;48.32
4745;BME280;2386;42.138;24.746;2023-02-08T08:49:19;101763.31;;;3.64;50.51
4745;BME280;2386;42.138;24.746;2023-02-08T08:51:45;101757.69;;;3.77;52.05
4745;BME280;2386;42.138;24.746;2023-02-08T08:54:11;101750.94;;;3.82;49.07
4745;BME280;2386;42.138;24.746;2023-02-08T08:56:36;101765.00;;;3.65;51.13
4745;BME280;2386;42.138;24.746;2023-02-08T08:59:01;101767.06;;;3.82;50.73
4745;BME280;2386;42.138;24.746;2023-02-08T09:01:27;101767.06;;;3.82;48.38
4745;BME280;2386;42.138;24.746;2023-02-08T09:03:52;101771.63;;;3.91;50.33
4745;BME280;2386;42.138;24.746;2023-02-08T09:06:18;101770.31;;;3.86;49.02
4745;BME280;2386;42.138;24.746;2023-02-08T09:08:43;101766.28;;;3.40;47.19
4745;BME280;2386;42.138;24.746;2023-02-08T09:11:11;101771.81;;;3.69;49.03
4745;BME280;2386;42.138;24.746;2023-02-08T09:13:37;101776.28;;;3.89;49.14
4745;BME280;2386;42.138;24.746;2023-02-08T09:16:05;101782.56;;;3.48;47.45
4745;BME280;2386;42.138;24.746;2023-02-08T09:18:30;101786.03;;;3.60;47.13
4745;BME280;2386;42.138;24.746;2023-02-08T09:20:56;101779.44;;;3.74;49.28
4745;BME280;2386;42.138;24.746;2023-02-08T09:23:21;101783.25;;;4.02;49.50
4745;BME280;2386;42.138;24.746;2023-02-08T09:25:46;101792.47;;;3.78;47.19
4745;BME280;2386;42.138;24.746;2023-02-08T09:28:12;101789.25;;;3.84;47.95
4745;BME280;2386;42.138;24.746;2023-02-08T09:30:37;101789.09;;;3.86;45.77
4745;BME280;2386;42.138;24.746;2023-02-08T09:33:02;101781.50;;;3.91;46.70
4745;BME280;2386;42.138;24.746;2023-02-08T09:35:28;101787.13;;;3.88;47.42
4745;BME280;2386;42.138;24.746;2023-02-08T09:37:54;101783.75;;;3.86;45.69
4745;BME280;2386;42.138;24.746;2023-02-08T09:40:25;101784.84;;;3.83;45.22
4745;BME280;2386;42.138;24.746;2023-02-08T09:43:05;101782.50;;;3.39;44.65
4745;BME280;2386;42.138;24.746;2023-02-08T09:45:50;101777.06;;;3.50;47.51
4745;BME280;2386;42.138;24.746;2023-02-08T09:48:23;101775.81;;;3.54;45.77
4745;BME280;2386;42.138;24.746;2023-02-08T09:53:33;101776.09;;;3.81;47.48
4745;BME280;2386;42.138;24.746;2023-02-08T09:56:03;101763.75;;;4.00;46.72
4745;BME280;2386;42.138;24.746;2023-02-08T09:58:38;101774.38;;;3.80;44.70
4745;BME280;2386;42.138;24.746;2023-02-08T10:01:06;101767.13;;;3.41;44.97
4745;BME280;2386;42.138;24.746;2023-02-08T10:03:42;101761.44;;;3.55;46.49
4745;BME280;2386;42.138;24.746;2023-02-08T10:06:13;101758.06;;;3.93;47.66
4745;BME280;2386;42.138;24.746;2023-02-08T10:08:39;101760.53;;;3.75;46.82
4745;BME280;2386;42.138;24.746;2023-02-08T10:30:45;101741.81;;;3.94;43.26
4745;BME280;2386;42.138;24.746;2023-02-08T10:33:25;101738.31;;;4.04;42.54
4745;BME280;2386;42.138;24.746;2023-02-08T10:35:52;101745.13;;;4.08;43.30
4745;BME280;2386;42.138;24.746;2023-02-08T10:40:45;101736.28;;;3.86;43.39
4745;BME280;2386;42.138;24.746;2023-02-08T10:43:37;101730.97;;;4.06;44.20
4745;BME280;2386;42.138;24.746;2023-02-08T10:46:15;101735.19;;;3.99;43.92
4745;BME280;2386;42.138;24.746;2023-02-08T10:52:03;101736.59;;;3.93;41.71
4745;BME280;2386;42.138;24.746;2023-02-08T10:54:30;101727.81;;;3.91;42.58
4745;BME280;2386;42.138;24.746;2023-02-08T10:57:27;101731.84;;;4.16;42.13
4745;BME280;2386;42.138;24.746;2023-02-08T11:00:03;101736.72;;;4.32;43.57
4745;BME280;2386;42.138;24.746;2023-02-08T11:02:34;101735.59;;;4.53;42.40
4745;BME280;2386;42.138;24.746;2023-02-08T11:08:19;101725.97;;;4.41;42.64
4745;BME280;2386;42.138;24.746;2023-02-08T11:11:06;101721.19;;;4.45;42.62
4745;BME280;2386;42.138;24.746;2023-02-08T11:13:42;101725.94;;;4.22;42.62
4745;BME280;2386;42.138;24.746;2023-02-08T11:16:20;101718.19;;;4.38;42.25
4745;BME280;2386;42.138;24.746;2023-02-08T11:19:06;101719.31;;;4.26;41.57
4745;BME280;2386;42.138;24.746;2023-02-08T11:21:38;101712.81;;;4.38;41.49
4745;BME280;2386;42.138;24.746;2023-02-08T11:26:41;101713.25;;;4.43;41.02
4745;BME280;2386;42.138;24.746;2023-02-08T11:29:19;101719.47;;;4.53;42.52
4745;BME280;2386;42.138;24.746;2023-02-08T11:34:37;101712.56;;;4.80;44.67
4745;BME280;2386;42.138;24.746;2023-02-08T11:37:18;101710.28;;;5.04;42.95
4745;BME280;2386;42.138;24.746;2023-02-08T11:39:57;101701.44;;;5.21;41.57
4745;BME280;2386;42.138;24.746;2023-02-08T11:42:30;101703.13;;;5.32;40.39
4745;BME280;2386;42.138;24.746;2023-02-08T11:44:59;101703.09;;;5.42;39.36
4745;BME280;2386;42.138;24.746;2023-02-08T11:47:27;101698.47;;;5.24;38.84
4745;BME280;2386;42.138;24.746;2023-02-08T11:49:55;101691.63;;;5.40;40.66
4745;BME280;2386;42.138;24.746;2023-02-08T11:52:22;101693.56;;;5.57;41.88
4745;BME280;2386;42.138;24.746;2023-02-08T11:54:53;101705.16;;;5.67;39.62
4745;BME280;2386;42.138;24.746;2023-02-08T11:57:24;101702.34;;;5.59;38.92
4745;BME280;2386;42.138;24.746;2023-02-08T11:59:51;101714.22;;;5.66;39.26
4745;BME280;2386;42.138;24.746;2023-02-08T12:04:59;101699.75;;;5.67;39.39
4745;BME280;2386;42.138;24.746;2023-02-08T12:10:43;101696.69;;;5.52;40.02
4745;BME280;2386;42.138;24.746;2023-02-08T12:13:22;101701.19;;;5.61;39.62
4745;BME280;2386;42.138;24.746;2023-02-08T12:15:59;101706.53;;;5.71;39.10
4745;BME280;2386;42.138;24.746;2023-02-08T12:21:45;101706.50;;;5.90;38.10
4745;BME280;2386;42.138;24.746;2023-02-08T12:29:29;101709.97;;;6.01;37.95
4745;BME280;2386;42.138;24.746;2023-02-08T12:34:50;101706.53;;;5.71;38.48
4745;BME280;2386;42.138;24.746;2023-02-08T12:46:21;101703.25;;;5.77;40.31
4745;BME280;2386;42.138;24.746;2023-02-08T12:51:26;101699.22;;;5.64;37.71
4745;BME280;2386;42.138;24.746;2023-02-08T12:54:47;101700.13;;;5.45;38.44
4745;BME280;2386;42.138;24.746;2023-02-08T12:56:47;101700.81;;;5.47;39.58
4745;BME280;2386;42.138;24.746;2023-02-08T12:59:46;101704.63;;;5.54;38.65
4745;BME280;2386;42.138;24.746;2023-02-08T13:02:20;101695.16;;;5.50;37.99
4745;BME280;2386;42.138;24.746;2023-02-08T13:04:51;101699.25;;;5.44;37.74
4745;BME280;2386;42.138;24.746;2023-02-08T13:07:40;101695.59;;;5.36;38.76
4745;BME280;2386;42.138;24.746;2023-02-08T13:10:24;101701.53;;;5.39;37.80
4745;BME280;2386;42.138;24.746;2023-02-08T13:12:53;101697.59;;;5.34;37.70
4745;BME280;2386;42.138;24.746;2023-02-08T13:15:26;101704.13;;;5.21;37.59
4745;BME280;2386;42.138;24.746;2023-02-08T13:18:00;101699.47;;;5.23;37.77
4745;BME280;2386;42.138;24.746;2023-02-08T13:20:46;101707.38;;;5.25;37.89
4745;BME280;2386;42.138;24.746;2023-02-08T13:25:55;101709.50;;;5.21;38.86
4745;BME280;2386;42.138;24.746;2023-02-08T13:28:23;101704.97;;;5.22;39.61
4745;BME280;2386;42.138;24.746;2023-02-08T13:33:40;101704.47;;;4.80;39.03
4745;BME280;2386;42.138;24.746;2023-02-08T13:36:26;101700.09;;;4.59;39.24
4745;BME280;2386;42.138;24.746;2023-02-08T13:38:53;101705.34;;;4.71;39.22
4745;BME280;2386;42.138;24.746;2023-02-08T13:41:22;101699.81;;;4.82;39.48
4745;BME280;2386;42.138;24.746;2023-02-08T13:43:57;101711.28;;;4.84;40.39
4745;BME280;2386;42.138;24.746;2023-02-08T13:46:27;101703.91;;;4.95;39.02
4745;BME280;2386;42.138;24.746;2023-02-08T13:48:54;101707.81;;;5.20;39.79
4745;BME280;2386;42.138;24.746;2023-02-08T13:56:50;101711.75;;;5.36;38.02
4745;BME280;2386;42.138;24.746;2023-02-08T14:04:38;101703.41;;;5.29;37.79
4745;BME280;2386;42.138;24.746;2023-02-08T14:07:25;101704.41;;;5.28;38.02
4745;BME280;2386;42.138;24.746;2023-02-08T14:10:08;101713.56;;;5.45;38.60
4745;BME280;2386;42.138;24.746;2023-02-08T14:17:42;101713.84;;;5.51;37.75
4745;BME280;2386;42.138;24.746;2023-02-08T14:20:20;101692.16;;;5.06;38.57
4745;BME280;2386;42.138;24.746;2023-02-08T14:22:58;101703.34;;;5.11;37.70
4745;BME280;2386;42.138;24.746;2023-02-08T14:25:40;101708.22;;;5.25;37.72
4745;BME280;2386;42.138;24.746;2023-02-08T14:30:53;101710.88;;;5.45;38.29
4745;BME280;2386;42.138;24.746;2023-02-08T14:33:24;101715.00;;;5.39;38.95
4745;BME280;2386;42.138;24.746;2023-02-08T14:35:54;101710.59;;;5.48;39.68
4745;BME280;2386;42.138;24.746;2023-02-08T14:40:56;101721.53;;;5.37;37.67
4745;BME280;2386;42.138;24.746;2023-02-08T14:43:37;101697.59;;;5.34;37.85
4745;BME280;2386;42.138;24.746;2023-02-08T14:52:27;101720.53;;;5.28;39.64
4745;BME280;2386;42.138;24.746;2023-02-08T14:55:02;101728.63;;;5.28;38.95
4745;BME280;2386;42.138;24.746;2023-02-08T14:57:49;101721.81;;;5.34;38.45
4745;BME280;2386;42.138;24.746;2023-02-08T15:00:24;101730.72;;;5.44;38.13
4745;BME280;2386;42.138;24.746;2023-02-08T15:02:52;101732.25;;;5.56;37.55
4745;BME280;2386;42.138;24.746;2023-02-08T15:05:27;101721.09;;;5.32;38.14
4745;BME280;2386;42.138;24.746;2023-02-08T15:07:55;101732.44;;;5.25;38.78
4745;BME280;2386;42.138;24.746;2023-02-08T15:10:22;101724.84;;;5.02;38.99
4745;BME280;2386;42.138;24.746;2023-02-08T15:12:53;101737.31;;;5.12;40.17
4745;BME280;2386;42.138;24.746;2023-02-08T15:15:32;101736.31;;;5.04;39.44
4745;BME280;2386;42.138;24.746;2023-02-08T15:18:00;101739.00;;;5.04;40.74
4745;BME280;2386;42.138;24.746;2023-02-08T15:20:33;101741.56;;;4.95;39.60
4745;BME280;2386;42.138;24.746;2023-02-08T15:23:02;101741.28;;;4.89;40.13
4745;BME280;2386;42.138;24.746;2023-02-08T15:36:02;101773.41;;;4.90;40.13